Time,TemperatureF,DewpointF,PressureIn,WindDirection,WindDirectionDegrees,WindSpeedMPH,WindSpeedGustMPH,Humidity,HourlyPrecipIn,Conditions,Clouds,dailyrainin,SoftwareType,DateUTC
2013-06-27 00:00:00,74.8,69.3,29.76,South,172,6.9,-999.0,82,0.00,,,0.00,SSEC-RIG,2013-06-27 05:00:00,
2013-06-27 00:05:00,75.0,69.8,29.76,SSE,161,3.8,-999.0,83,0.00,,,0.00,SSEC-RIG,2013-06-27 05:05:00,
2013-06-27 00:10:00,75.3,71.2,29.76,SSE,152,4.4,-999.0,86,0.00,,,0.00,SSEC-RIG,2013-06-27 05:10:00,
2013-06-27 00:15:00,75.5,71.7,29.77,SSE,151,5.2,-999.0,87,0.00,,,0.00,SSEC-RIG,2013-06-27 05:15:00,
2013-06-27 00:20:00,74.5,69.9,29.77,SSE,166,5.1,-999.0,84,0.00,,,0.00,SSEC-RIG,2013-06-27 05:20:00,
2013-06-27 00:25:00,74.7,71.1,29.77,SE,135,5.1,-999.0,88,0.00,,,0.00,SSEC-RIG,2013-06-27 05:25:00,
2013-06-27 00:30:00,74.3,70.7,29.77,SSE,158,6.7,-999.0,87,0.00,,,0.00,SSEC-RIG,2013-06-27 05:30:00,
2013-06-27 00:35:00,74.0,69.8,29.77,South,171,6.3,-999.0,86,0.00,,,0.00,SSEC-RIG,2013-06-27 05:35:00,
2013-06-27 00:40:00,74.0,69.7,29.77,South,172,5.1,-999.0,85,0.00,,,0.00,SSEC-RIG,2013-06-27 05:40:00,
2013-06-27 00:45:00,74.2,70.1,29.77,South,169,5.1,-999.0,86,0.00,,,0.00,SSEC-RIG,2013-06-27 05:45:00,
2013-06-27 00:50:00,74.1,70.0,29.77,South,171,4.2,-999.0,86,0.00,,,0.00,SSEC-RIG,2013-06-27 05:50:00,
2013-06-27 00:55:00,74.0,69.9,29.77,South,186,5.7,-999.0,86,0.00,,,0.00,SSEC-RIG,2013-06-27 05:55:00,
2013-06-27 01:00:00,74.0,69.8,29.77,SSW,199,6.8,-999.0,86,0.00,,,0.00,SSEC-RIG,2013-06-27 06:00:00,
2013-06-27 01:05:00,73.9,69.8,29.77,SSW,205,7.2,-999.0,86,0.00,,,0.00,SSEC-RIG,2013-06-27 06:05:00,
2013-06-27 01:10:00,73.9,69.9,29.77,SW,214,6.9,-999.0,87,0.00,,,0.00,SSEC-RIG,2013-06-27 06:10:00,
2013-06-27 01:15:00,73.7,70.1,29.77,SW,219,5.8,-999.0,88,0.00,,,0.00,SSEC-RIG,2013-06-27 06:15:00,
2013-06-27 01:20:00,73.6,70.0,29.77,SW,219,7.8,-999.0,87,0.00,,,0.00,SSEC-RIG,2013-06-27 06:20:00,
2013-06-27 01:25:00,73.7,69.9,29.76,SW,219,9.6,-999.0,87,0.00,,,0.00,SSEC-RIG,2013-06-27 06:25:00,
2013-06-27 01:30:00,73.6,69.9,29.76,SW,219,9.2,-999.0,87,0.00,,,0.00,SSEC-RIG,2013-06-27 06:30:00,
2013-06-27 01:40:00,74.4,69.6,29.76,SW,225,9.3,-999.0,84,0.00,,,0.00,SSEC-RIG,2013-06-27 06:40:00,
2013-06-27 01:45:00,74.1,69.8,29.76,SW,224,10.1,-999.0,85,0.00,,,0.00,SSEC-RIG,2013-06-27 06:45:00,
2013-06-27 01:55:00,73.4,69.8,29.75,SW,217,10.1,-999.0,88,0.00,,,0.00,SSEC-RIG,2013-06-27 06:55:00,
2013-06-27 02:00:00,73.2,69.8,29.75,SW,219,9.8,-999.0,88,0.00,,,0.00,SSEC-RIG,2013-06-27 07:00:00,
2013-06-27 02:05:00,73.1,69.9,29.76,SW,228,9.5,-999.0,89,0.00,,,0.00,SSEC-RIG,2013-06-27 07:05:00,
2013-06-27 02:10:00,73.0,69.9,29.76,SW,227,9.9,-999.0,89,0.00,,,0.00,SSEC-RIG,2013-06-27 07:10:00,
2013-06-27 02:15:00,72.7,69.9,29.76,SW,230,8.9,-999.0,90,0.00,,,0.00,SSEC-RIG,2013-06-27 07:15:00,
2013-06-27 02:20:00,72.7,69.9,29.76,SW,224,9.0,-999.0,90,0.00,,,0.00,SSEC-RIG,2013-06-27 07:20:00,
2013-06-27 02:25:00,72.4,70.0,29.76,SW,224,7.6,-999.0,91,0.00,,,0.00,SSEC-RIG,2013-06-27 07:25:00,
2013-06-27 02:35:00,72.2,70.1,29.76,SW,228,5.6,-999.0,92,0.00,,,0.00,SSEC-RIG,2013-06-27 07:35:00,
2013-06-27 02:40:00,72.2,70.1,29.77,SW,221,5.3,-999.0,92,0.00,,,0.00,SSEC-RIG,2013-06-27 07:40:00,
2013-06-27 02:45:00,72.2,70.1,29.77,SW,224,5.7,-999.0,92,0.00,,,0.00,SSEC-RIG,2013-06-27 07:45:00,
2013-06-27 02:50:00,72.2,70.1,29.77,SW,221,5.3,-999.0,92,0.00,,,0.00,SSEC-RIG,2013-06-27 07:50:00,
2013-06-27 02:55:00,72.2,70.1,29.77,SW,236,3.9,-999.0,92,0.00,,,0.00,SSEC-RIG,2013-06-27 07:55:00,
2013-06-27 03:00:00,72.2,70.1,29.77,SW,236,3.8,-999.0,92,0.00,,,0.00,SSEC-RIG,2013-06-27 08:00:00,
2013-06-27 03:10:00,72.1,70.1,29.77,SW,232,4.0,-999.0,92,0.00,,,0.00,SSEC-RIG,2013-06-27 08:10:00,
2013-06-27 03:15:00,72.1,70.0,29.77,SW,222,3.5,-999.0,92,0.00,,,0.00,SSEC-RIG,2013-06-27 08:15:00,
2013-06-27 03:20:00,72.0,70.0,29.77,SW,223,3.0,-999.0,93,0.00,,,0.00,SSEC-RIG,2013-06-27 08:20:00,
2013-06-27 03:30:00,71.9,70.0,29.77,WSW,247,2.9,-999.0,93,0.00,,,0.00,SSEC-RIG,2013-06-27 08:30:00,
2013-06-27 03:35:00,71.9,70.0,29.77,WSW,245,3.1,-999.0,93,0.00,,,0.00,SSEC-RIG,2013-06-27 08:35:00,
2013-06-27 03:40:00,71.9,70.0,29.77,WSW,239,3.2,-999.0,93,0.00,,,0.00,SSEC-RIG,2013-06-27 08:40:00,
2013-06-27 03:50:00,71.9,69.9,29.76,WSW,243,3.6,-999.0,93,0.00,,,0.00,SSEC-RIG,2013-06-27 08:50:00,
2013-06-27 03:55:00,71.9,69.8,29.76,West,259,5.5,-999.0,92,0.00,,,0.00,SSEC-RIG,2013-06-27 08:55:00,
2013-06-27 04:00:00,71.8,69.9,29.76,West,261,6.5,-999.0,93,0.00,,,0.00,SSEC-RIG,2013-06-27 09:00:00,
2013-06-27 04:10:00,71.6,69.7,29.76,West,267,6.1,-999.0,93,0.00,,,0.00,SSEC-RIG,2013-06-27 09:10:00,
2013-06-27 04:20:00,71.5,69.6,29.76,West,273,5.5,-999.0,93,0.00,,,0.00,SSEC-RIG,2013-06-27 09:20:00,
2013-06-27 04:25:00,71.3,69.6,29.76,WNW,289,6.0,-999.0,93,0.00,,,0.00,SSEC-RIG,2013-06-27 09:25:00,
2013-06-27 04:30:00,71.4,69.6,29.76,WNW,298,6.3,-999.0,93,0.00,,,0.00,SSEC-RIG,2013-06-27 09:30:00,
2013-06-27 04:35:00,71.4,69.7,29.76,WNW,297,5.3,-999.0,93,0.00,,,0.00,SSEC-RIG,2013-06-27 09:35:00,
2013-06-27 04:40:00,71.4,69.6,29.76,NW,308,6.0,-999.0,93,0.00,,,0.00,SSEC-RIG,2013-06-27 09:40:00,
2013-06-27 04:45:00,71.4,69.4,29.77,NW,306,7.6,-999.0,92,0.00,,,0.00,SSEC-RIG,2013-06-27 09:45:00,
2013-06-27 04:50:00,71.5,69.5,29.77,NW,306,7.6,-999.0,92,0.00,,,0.00,SSEC-RIG,2013-06-27 09:50:00,
2013-06-27 04:55:00,71.5,69.5,29.77,WNW,303,8.2,-999.0,92,0.00,,,0.00,SSEC-RIG,2013-06-27 09:55:00,
2013-06-27 05:00:00,71.6,69.5,29.77,NW,306,10.6,16.3,92,0.00,,,0.00,SSEC-RIG,2013-06-27 10:00:00,
2013-06-27 05:05:00,71.6,69.5,29.77,WNW,303,10.5,-999.0,92,0.00,,,0.00,SSEC-RIG,2013-06-27 10:05:00,
2013-06-27 05:10:00,71.5,69.3,29.77,NW,304,11.5,-999.0,92,0.00,,,0.00,SSEC-RIG,2013-06-27 10:10:00,
2013-06-27 05:15:00,71.4,69.3,29.77,NW,305,10.5,-999.0,92,0.00,,,0.00,SSEC-RIG,2013-06-27 10:15:00,
2013-06-27 05:20:00,71.1,69.3,29.77,NW,309,10.6,-999.0,93,0.00,,,0.00,SSEC-RIG,2013-06-27 10:20:00,
2013-06-27 05:25:00,71.1,69.3,29.77,NW,313,12.9,16.4,93,0.00,,,0.00,SSEC-RIG,2013-06-27 10:25:00,
2013-06-27 05:30:00,71.1,69.3,29.78,NW,312,12.1,-999.0,93,0.00,,,0.00,SSEC-RIG,2013-06-27 10:30:00,
2013-06-27 05:35:00,71.1,69.3,29.78,NW,315,11.5,-999.0,93,0.00,,,0.00,SSEC-RIG,2013-06-27 10:35:00,
2013-06-27 05:40:00,71.1,69.2,29.78,NW,315,12.6,-999.0,93,0.00,,,0.00,SSEC-RIG,2013-06-27 10:40:00,
2013-06-27 05:45:00,71.0,69.2,29.78,NW,312,12.1,-999.0,93,0.00,,,0.00,SSEC-RIG,2013-06-27 10:45:00,
2013-06-27 05:55:00,71.1,69.2,29.78,NW,310,12.2,16.4,93,0.00,,,0.00,SSEC-RIG,2013-06-27 10:55:00,
2013-06-27 06:00:00,71.2,69.1,29.79,NW,312,12.4,16.5,92,0.00,,,0.00,SSEC-RIG,2013-06-27 11:00:00,
2013-06-27 06:05:00,71.2,69.1,29.79,NW,313,11.2,-999.0,92,0.00,,,0.00,SSEC-RIG,2013-06-27 11:05:00,
2013-06-27 06:10:00,71.1,69.1,29.79,NW,314,12.3,17.2,92,0.00,,,0.00,SSEC-RIG,2013-06-27 11:10:00,
2013-06-27 06:15:00,71.1,69.2,29.79,NW,318,12.1,-999.0,93,0.00,,,0.00,SSEC-RIG,2013-06-27 11:15:00,
2013-06-27 06:20:00,71.2,69.1,29.79,NW,319,10.7,-999.0,92,0.00,,,0.00,SSEC-RIG,2013-06-27 11:20:00,
2013-06-27 06:25:00,71.2,69.1,29.79,NW,318,9.7,-999.0,92,0.00,,,0.00,SSEC-RIG,2013-06-27 11:25:00,
2013-06-27 06:35:00,71.2,69.1,29.79,NW,316,9.7,-999.0,92,0.00,,,0.00,SSEC-RIG,2013-06-27 11:35:00,
2013-06-27 06:40:00,71.1,69.1,29.79,NW,317,9.7,-999.0,92,0.00,,,0.00,SSEC-RIG,2013-06-27 11:40:00,
2013-06-27 06:45:00,71.2,69.1,29.79,NNW,327,10.2,-999.0,92,0.00,,,0.00,SSEC-RIG,2013-06-27 11:45:00,
2013-06-27 06:50:00,71.3,69.1,29.79,NW,324,8.0,-999.0,92,0.00,,,0.00,SSEC-RIG,2013-06-27 11:50:00,
2013-06-27 07:00:00,71.1,69.1,29.79,NW,317,9.3,-999.0,93,0.00,,,0.00,SSEC-RIG,2013-06-27 12:00:00,
2013-06-27 07:05:00,71.0,69.1,29.78,NW,320,9.4,-999.0,93,0.00,,,0.00,SSEC-RIG,2013-06-27 12:05:00,
2013-06-27 07:10:00,71.1,69.2,29.78,NW,322,8.9,-999.0,92,0.00,,,0.00,SSEC-RIG,2013-06-27 12:10:00,
2013-06-27 07:20:00,71.3,69.1,29.79,NW,323,10.3,-999.0,92,0.00,,,0.00,SSEC-RIG,2013-06-27 12:20:00,
2013-06-27 07:25:00,71.4,69.2,29.79,NW,320,9.0,-999.0,92,0.00,,,0.00,SSEC-RIG,2013-06-27 12:25:00,
2013-06-27 07:30:00,71.8,69.1,29.79,NW,321,9.0,-999.0,90,0.00,,,0.00,SSEC-RIG,2013-06-27 12:30:00,
2013-06-27 07:40:00,72.1,69.1,29.79,NW,322,9.3,-999.0,89,0.00,,,0.00,SSEC-RIG,2013-06-27 12:40:00,
2013-06-27 07:45:00,72.2,69.0,29.79,NW,323,9.2,-999.0,89,0.00,,,0.00,SSEC-RIG,2013-06-27 12:45:00,
2013-06-27 07:50:00,72.2,69.1,29.79,NW,320,10.7,-999.0,89,0.00,,,0.00,SSEC-RIG,2013-06-27 12:50:00,
2013-06-27 07:55:00,72.3,69.2,29.79,NW,318,10.8,-999.0,89,0.00,,,0.00,SSEC-RIG,2013-06-27 12:55:00,
2013-06-27 08:00:00,72.5,69.2,29.79,NW,320,10.5,-999.0,89,0.00,,,0.00,SSEC-RIG,2013-06-27 13:00:00,
2013-06-27 08:05:00,72.8,69.3,29.79,NW,318,9.8,-999.0,88,0.00,,,0.00,SSEC-RIG,2013-06-27 13:05:00,
2013-06-27 08:10:00,73.0,69.3,29.80,NW,324,8.9,-999.0,87,0.00,,,0.00,SSEC-RIG,2013-06-27 13:10:00,
2013-06-27 08:15:00,73.2,69.3,29.80,NNW,329,8.4,-999.0,87,0.00,,,0.00,SSEC-RIG,2013-06-27 13:15:00,
2013-06-27 08:20:00,73.8,69.2,29.80,NNW,327,6.6,-999.0,85,0.00,,,0.00,SSEC-RIG,2013-06-27 13:20:00,
2013-06-27 08:25:00,73.7,69.1,29.79,NW,317,7.7,-999.0,84,0.00,,,0.00,SSEC-RIG,2013-06-27 13:25:00,
2013-06-27 08:30:00,73.9,69.0,29.80,NW,320,8.1,-999.0,84,0.00,,,0.00,SSEC-RIG,2013-06-27 13:30:00,
2013-06-27 08:35:00,73.9,69.1,29.79,NNW,332,8.0,-999.0,84,0.00,,,0.00,SSEC-RIG,2013-06-27 13:35:00,
2013-06-27 08:40:00,74.2,69.0,29.79,NNW,327,7.2,-999.0,83,0.00,,,0.00,SSEC-RIG,2013-06-27 13:40:00,
2013-06-27 08:45:00,74.5,69.0,29.79,NW,314,6.1,-999.0,82,0.00,,,0.00,SSEC-RIG,2013-06-27 13:45:00,
2013-06-27 08:50:00,74.6,68.8,29.80,NW,311,6.8,-999.0,81,0.00,,,0.00,SSEC-RIG,2013-06-27 13:50:00,
2013-06-27 08:55:00,74.5,68.8,29.80,NW,320,8.9,-999.0,81,0.00,,,0.00,SSEC-RIG,2013-06-27 13:55:00,
2013-06-27 09:00:00,74.8,68.8,29.80,NW,323,8.4,-999.0,81,0.00,,,0.00,SSEC-RIG,2013-06-27 14:00:00,
2013-06-27 09:05:00,75.2,68.8,29.79,NNW,329,7.6,-999.0,80,0.00,,,0.00,SSEC-RIG,2013-06-27 14:05:00,
2013-06-27 09:10:00,75.5,68.6,29.79,NW,316,6.9,-999.0,78,0.00,,,0.00,SSEC-RIG,2013-06-27 14:10:00,
2013-06-27 09:15:00,75.9,69.0,29.79,NNW,329,6.1,-999.0,78,0.00,,,0.00,SSEC-RIG,2013-06-27 14:15:00,
2013-06-27 09:20:00,76.2,68.8,29.79,NW,323,5.5,-999.0,77,0.00,,,0.00,SSEC-RIG,2013-06-27 14:20:00,
2013-06-27 09:30:00,76.9,68.3,29.79,NW,320,7.0,-999.0,74,0.00,,,0.00,SSEC-RIG,2013-06-27 14:30:00,
2013-06-27 09:35:00,76.5,68.0,29.79,NW,313,8.0,-999.0,74,0.00,,,0.00,SSEC-RIG,2013-06-27 14:35:00,
2013-06-27 09:40:00,76.9,67.9,29.79,NW,315,6.8,-999.0,73,0.00,,,0.00,SSEC-RIG,2013-06-27 14:40:00,
2013-06-27 09:45:00,77.2,67.8,29.79,NW,317,9.2,-999.0,72,0.00,,,0.00,SSEC-RIG,2013-06-27 14:45:00,
2013-06-27 09:50:00,77.1,67.3,29.79,NW,322,8.5,-999.0,71,0.00,,,0.00,SSEC-RIG,2013-06-27 14:50:00,
2013-06-27 09:55:00,77.5,67.5,29.79,NW,325,7.2,-999.0,70,0.00,,,0.00,SSEC-RIG,2013-06-27 14:55:00,
2013-06-27 10:00:00,77.9,67.6,29.79,NW,322,7.2,-999.0,70,0.00,,,0.00,SSEC-RIG,2013-06-27 15:00:00,
2013-06-27 10:05:00,77.9,67.7,29.79,NW,319,8.5,-999.0,70,0.00,,,0.00,SSEC-RIG,2013-06-27 15:05:00,
2013-06-27 10:10:00,78.1,67.5,29.79,NW,311,9.9,-999.0,69,0.00,,,0.00,SSEC-RIG,2013-06-27 15:10:00,
2013-06-27 10:15:00,78.4,67.4,29.79,NW,322,9.2,-999.0,68,0.00,,,0.00,SSEC-RIG,2013-06-27 15:15:00,
2013-06-27 10:25:00,78.6,67.0,29.78,NW,322,10.3,-999.0,67,0.00,,,0.00,SSEC-RIG,2013-06-27 15:25:00,
2013-06-27 10:30:00,79.1,67.0,29.79,NNW,328,10.5,-999.0,66,0.00,,,0.00,SSEC-RIG,2013-06-27 15:30:00,
2013-06-27 10:35:00,79.2,67.4,29.78,NNW,327,8.7,-999.0,66,0.00,,,0.00,SSEC-RIG,2013-06-27 15:35:00,
2013-06-27 10:40:00,79.0,67.2,29.78,NW,320,10.5,17.0,67,0.00,,,0.00,SSEC-RIG,2013-06-27 15:40:00,
2013-06-27 10:45:00,79.0,67.1,29.78,NW,310,13.0,17.1,66,0.00,,,0.00,SSEC-RIG,2013-06-27 15:45:00,
2013-06-27 10:50:00,79.0,67.1,29.78,NW,312,10.2,-999.0,66,0.00,,,0.00,SSEC-RIG,2013-06-27 15:50:00,
2013-06-27 10:55:00,78.8,67.1,29.78,NW,308,10.3,-999.0,66,0.00,,,0.00,SSEC-RIG,2013-06-27 15:55:00,
2013-06-27 11:05:00,79.8,67.6,29.79,NW,309,7.1,-999.0,65,0.00,,,0.00,SSEC-RIG,2013-06-27 16:05:00,
2013-06-27 11:10:00,79.5,67.6,29.78,NW,312,9.5,-999.0,66,0.00,,,0.00,SSEC-RIG,2013-06-27 16:10:00,
2013-06-27 11:15:00,80.2,67.2,29.78,NW,308,8.8,-999.0,64,0.00,,,0.00,SSEC-RIG,2013-06-27 16:15:00,
2013-06-27 11:25:00,79.6,66.6,29.78,NW,315,11.3,-999.0,64,0.00,,,0.00,SSEC-RIG,2013-06-27 16:25:00,
2013-06-27 11:35:00,80.3,66.5,29.78,WNW,303,9.7,-999.0,62,0.00,,,0.00,SSEC-RIG,2013-06-27 16:35:00,
2013-06-27 11:40:00,80.3,64.8,29.78,NW,317,12.1,-999.0,58,0.00,,,0.00,SSEC-RIG,2013-06-27 16:40:00,
2013-06-27 11:50:00,80.7,65.3,29.78,WNW,292,10.9,-999.0,59,0.00,,,0.00,SSEC-RIG,2013-06-27 16:50:00,
2013-06-27 11:55:00,81.0,65.2,29.77,WNW,289,11.7,-999.0,58,0.00,,,0.00,SSEC-RIG,2013-06-27 16:55:00,
2013-06-27 12:00:00,81.3,65.4,29.78,WNW,299,7.5,-999.0,58,0.00,,,0.00,SSEC-RIG,2013-06-27 17:00:00,
2013-06-27 12:05:00,81.4,65.3,29.78,NW,319,7.4,-999.0,57,0.00,,,0.00,SSEC-RIG,2013-06-27 17:05:00,
2013-06-27 12:10:00,81.6,65.8,29.77,WNW,283,9.2,-999.0,58,0.00,,,0.00,SSEC-RIG,2013-06-27 17:10:00,
2013-06-27 12:15:00,81.5,64.7,29.77,West,259,8.6,-999.0,56,0.00,,,0.00,SSEC-RIG,2013-06-27 17:15:00,
2013-06-27 12:20:00,82.0,64.2,29.77,WNW,302,7.9,-999.0,54,0.00,,,0.00,SSEC-RIG,2013-06-27 17:20:00,
2013-06-27 12:25:00,82.4,64.8,29.77,WNW,302,6.7,-999.0,55,0.00,,,0.00,SSEC-RIG,2013-06-27 17:25:00,
2013-06-27 12:30:00,82.5,64.0,29.77,WNW,301,9.5,16.6,53,0.00,,,0.00,SSEC-RIG,2013-06-27 17:30:00,
2013-06-27 12:35:00,82.8,61.9,29.77,West,272,8.0,-999.0,49,0.00,,,0.00,SSEC-RIG,2013-06-27 17:35:00,
2013-06-27 12:40:00,83.2,62.4,29.77,NW,313,9.9,-999.0,49,0.00,,,0.00,SSEC-RIG,2013-06-27 17:40:00,
2013-06-27 12:50:00,83.0,62.4,29.77,NW,316,10.9,-999.0,49,0.00,,,0.00,SSEC-RIG,2013-06-27 17:50:00,
2013-06-27 12:55:00,83.6,62.6,29.77,NW,309,7.5,-999.0,49,0.00,,,0.00,SSEC-RIG,2013-06-27 17:55:00,
2013-06-27 13:00:00,83.8,63.2,29.77,NW,308,7.1,-999.0,49,0.00,,,0.00,SSEC-RIG,2013-06-27 18:00:00,
2013-06-27 13:05:00,83.8,63.7,29.77,West,273,7.5,-999.0,50,0.00,,,0.00,SSEC-RIG,2013-06-27 18:05:00,
2013-06-27 13:10:00,83.5,63.4,29.76,WNW,289,8.5,-999.0,50,0.00,,,0.00,SSEC-RIG,2013-06-27 18:10:00,
2013-06-27 13:15:00,84.0,62.8,29.76,West,266,9.1,-999.0,48,0.00,,,0.00,SSEC-RIG,2013-06-27 18:15:00,
2013-06-27 13:20:00,84.0,62.3,29.76,West,274,9.9,-999.0,48,0.00,,,0.00,SSEC-RIG,2013-06-27 18:20:00,
2013-06-27 13:25:00,83.7,62.4,29.76,WNW,285,10.5,-999.0,48,0.00,,,0.00,SSEC-RIG,2013-06-27 18:25:00,
2013-06-27 13:30:00,83.4,63.2,29.76,WNW,297,12.2,-999.0,50,0.00,,,0.00,SSEC-RIG,2013-06-27 18:30:00,
2013-06-27 13:35:00,83.7,63.4,29.76,WNW,283,12.7,-999.0,50,0.00,,,0.00,SSEC-RIG,2013-06-27 18:35:00,
2013-06-27 13:40:00,84.5,63.7,29.76,WNW,282,8.2,-999.0,49,0.00,,,0.00,SSEC-RIG,2013-06-27 18:40:00,
2013-06-27 13:50:00,84.5,62.7,29.75,WSW,253,12.9,16.2,47,0.00,,,0.00,SSEC-RIG,2013-06-27 18:50:00,
2013-06-27 13:55:00,84.6,63.1,29.75,West,262,13.0,18.9,48,0.00,,,0.00,SSEC-RIG,2013-06-27 18:55:00,
2013-06-27 14:00:00,84.6,63.5,29.75,West,261,9.5,-999.0,49,0.00,,,0.00,SSEC-RIG,2013-06-27 19:00:00,
2013-06-27 14:10:00,84.6,61.4,29.75,West,273,14.7,20.3,45,0.00,,,0.00,SSEC-RIG,2013-06-27 19:10:00,
2013-06-27 14:15:00,84.0,61.6,29.74,West,275,17.4,24.0,46,0.00,,,0.00,SSEC-RIG,2013-06-27 19:15:00,
2013-06-27 14:20:00,84.3,62.4,29.74,West,264,14.7,21.4,47,0.00,,,0.00,SSEC-RIG,2013-06-27 19:20:00,
2013-06-27 14:25:00,84.4,63.0,29.74,WSW,258,13.2,21.0,48,0.00,,,0.00,SSEC-RIG,2013-06-27 19:25:00,
2013-06-27 14:35:00,85.0,62.6,29.72,WSW,254,16.9,26.0,46,0.00,,,0.00,SSEC-RIG,2013-06-27 19:35:00,
2013-06-27 14:40:00,85.0,62.4,29.72,West,267,16.1,24.2,46,0.00,,,0.00,SSEC-RIG,2013-06-27 19:40:00,
2013-06-27 14:45:00,84.4,64.2,29.73,WSW,245,17.7,22.6,50,0.00,,,0.00,SSEC-RIG,2013-06-27 19:45:00,
2013-06-27 14:55:00,84.6,64.4,29.72,West,266,13.6,20.2,50,0.00,,,0.00,SSEC-RIG,2013-06-27 19:55:00,
2013-06-27 15:00:00,84.6,64.4,29.72,West,262,18.8,22.9,50,0.00,,,0.00,SSEC-RIG,2013-06-27 20:00:00,
2013-06-27 15:05:00,84.5,64.2,29.72,West,268,20.2,25.5,50,0.00,,,0.00,SSEC-RIG,2013-06-27 20:05:00,
2013-06-27 15:10:00,85.0,64.9,29.72,WNW,282,15.3,21.2,50,0.00,,,0.00,SSEC-RIG,2013-06-27 20:10:00,
2013-06-27 15:15:00,84.6,65.1,29.72,WNW,282,16.4,24.6,51,0.00,,,0.00,SSEC-RIG,2013-06-27 20:15:00,
2013-06-27 15:20:00,84.6,64.7,29.72,West,267,21.6,28.3,50,0.00,,,0.00,SSEC-RIG,2013-06-27 20:20:00,
2013-06-27 15:25:00,84.8,64.7,29.72,West,271,21.0,26.9,50,0.00,,,0.00,SSEC-RIG,2013-06-27 20:25:00,
2013-06-27 15:40:00,85.0,64.1,29.72,West,272,14.1,21.5,49,0.00,,,0.00,SSEC-RIG,2013-06-27 20:40:00,
2013-06-27 15:45:00,84.9,64.1,29.71,West,280,17.9,26.0,49,0.00,,,0.00,SSEC-RIG,2013-06-27 20:45:00,
2013-06-27 15:55:00,85.3,64.2,29.72,WNW,294,10.6,18.1,49,0.00,,,0.00,SSEC-RIG,2013-06-27 20:55:00,
2013-06-27 16:00:00,85.4,64.5,29.72,WNW,297,12.1,17.3,49,0.00,,,0.00,SSEC-RIG,2013-06-27 21:00:00,
2013-06-27 16:10:00,85.6,61.0,29.71,WNW,295,19.4,25.8,43,0.00,,,0.00,SSEC-RIG,2013-06-27 21:10:00,
2013-06-27 16:15:00,85.3,62.3,29.71,WNW,291,17.4,20.4,46,0.00,,,0.00,SSEC-RIG,2013-06-27 21:15:00,
2013-06-27 16:25:00,85.7,62.7,29.71,WNW,285,13.7,26.8,45,0.00,,,0.00,SSEC-RIG,2013-06-27 21:25:00,
2013-06-27 16:35:00,85.0,62.8,29.70,WNW,296,17.6,23.6,47,0.00,,,0.00,SSEC-RIG,2013-06-27 21:35:00,
2013-06-27 16:40:00,84.6,62.2,29.70,NW,307,14.2,20.5,46,0.00,,,0.00,SSEC-RIG,2013-06-27 21:40:00,
2013-06-27 16:45:00,84.7,62.1,29.70,NW,308,17.0,24.5,46,0.00,,,0.00,SSEC-RIG,2013-06-27 21:45:00,
2013-06-27 16:50:00,85.0,62.5,29.70,WNW,297,13.0,17.8,46,0.00,,,0.00,SSEC-RIG,2013-06-27 21:50:00,
2013-06-27 16:55:00,84.9,62.0,29.70,WNW,297,15.1,20.4,46,0.00,,,0.00,SSEC-RIG,2013-06-27 21:55:00,
2013-06-27 17:00:00,84.2,61.6,29.69,WNW,295,19.2,26.8,46,0.00,,,0.00,SSEC-RIG,2013-06-27 22:00:00,
2013-06-27 17:05:00,84.3,61.6,29.69,WNW,295,13.1,21.7,46,0.00,,,0.00,SSEC-RIG,2013-06-27 22:05:00,
2013-06-27 17:10:00,84.0,62.4,29.69,NW,308,14.9,21.1,48,0.00,,,0.00,SSEC-RIG,2013-06-27 22:10:00,
2013-06-27 17:20:00,84.6,59.7,29.69,NW,305,18.9,26.6,42,0.00,,,0.00,SSEC-RIG,2013-06-27 22:20:00,
2013-06-27 17:30:00,85.3,55.8,29.69,WNW,299,20.3,26.9,36,0.00,,,0.00,SSEC-RIG,2013-06-27 22:30:00,
2013-06-27 17:35:00,85.3,56.3,29.69,WNW,301,22.5,29.8,37,0.00,,,0.00,SSEC-RIG,2013-06-27 22:35:00,
2013-06-27 17:40:00,84.8,56.8,29.69,WNW,298,20.3,26.2,38,0.00,,,0.00,SSEC-RIG,2013-06-27 22:40:00,
2013-06-27 17:45:00,84.7,57.2,29.69,WNW,299,16.7,28.0,39,0.00,,,0.00,SSEC-RIG,2013-06-27 22:45:00,
2013-06-27 17:50:00,84.7,57.3,29.69,NW,305,24.1,32.0,39,0.00,,,0.00,SSEC-RIG,2013-06-27 22:50:00,
2013-06-27 17:55:00,84.8,57.8,29.69,WNW,303,24.3,33.5,39,0.00,,,0.00,SSEC-RIG,2013-06-27 22:55:00,
2013-06-27 18:05:00,84.6,58.2,29.69,WNW,302,24.5,32.4,40,0.00,,,0.00,SSEC-RIG,2013-06-27 23:05:00,
2013-06-27 18:10:00,84.4,58.3,29.69,WNW,303,19.7,25.5,41,0.00,,,0.00,SSEC-RIG,2013-06-27 23:10:00,
2013-06-27 18:15:00,83.7,58.2,29.69,WNW,300,18.7,24.9,41,0.00,,,0.00,SSEC-RIG,2013-06-27 23:15:00,
2013-06-27 18:35:00,83.5,58.4,29.69,NW,307,22.4,28.6,42,0.00,,,0.00,SSEC-RIG,2013-06-27 23:35:00,
2013-06-27 18:50:00,83.1,56.8,29.70,NW,315,19.6,29.7,40,0.00,,,0.00,SSEC-RIG,2013-06-27 23:50:00,
2013-06-27 18:55:00,83.0,56.2,29.71,NW,319,21.9,28.1,39,0.00,,,0.00,SSEC-RIG,2013-06-27 23:55:00,
2013-06-27 19:00:00,82.7,56.2,29.71,NW,321,18.3,27.9,40,0.00,,,0.00,SSEC-RIG,2013-06-28 00:00:00,
2013-06-27 19:05:00,82.5,56.5,29.71,NW,319,15.2,22.7,40,0.00,,,0.00,SSEC-RIG,2013-06-28 00:05:00,
2013-06-27 19:10:00,82.3,56.7,29.71,NW,323,15.1,19.7,41,0.00,,,0.00,SSEC-RIG,2013-06-28 00:10:00,
2013-06-27 19:15:00,82.1,57.0,29.71,NW,324,14.0,19.1,42,0.00,,,0.00,SSEC-RIG,2013-06-28 00:15:00,
2013-06-27 19:20:00,81.9,57.3,29.71,NW,319,14.2,19.1,42,0.00,,,0.00,SSEC-RIG,2013-06-28 00:20:00,
2013-06-27 19:25:00,81.9,57.7,29.71,NW,322,10.5,-999.0,43,0.00,,,0.00,SSEC-RIG,2013-06-28 00:25:00,
2013-06-27 19:30:00,81.7,58.1,29.71,NW,319,11.6,-999.0,44,0.00,,,0.00,SSEC-RIG,2013-06-28 00:30:00,
2013-06-27 19:40:00,81.5,58.6,29.71,NW,315,11.2,16.4,45,0.00,,,0.00,SSEC-RIG,2013-06-28 00:40:00,
2013-06-27 19:50:00,81.3,59.1,29.72,NW,312,11.0,-999.0,46,0.00,,,0.00,SSEC-RIG,2013-06-28 00:50:00,
2013-06-27 20:00:00,81.0,59.6,29.72,NW,319,11.5,16.8,47,0.00,,,0.00,SSEC-RIG,2013-06-28 01:00:00,
2013-06-27 20:05:00,80.8,59.6,29.72,NW,317,12.3,16.4,48,0.00,,,0.00,SSEC-RIG,2013-06-28 01:05:00,
2013-06-27 20:10:00,80.7,59.5,29.72,NW,318,13.0,17.4,48,0.00,,,0.00,SSEC-RIG,2013-06-28 01:10:00,
2013-06-27 20:15:00,80.7,59.1,29.72,NW,322,15.0,18.7,47,0.00,,,0.00,SSEC-RIG,2013-06-28 01:15:00,
2013-06-27 20:20:00,80.5,59.2,29.72,NW,322,14.8,19.0,48,0.00,,,0.00,SSEC-RIG,2013-06-28 01:20:00,
2013-06-27 20:30:00,80.0,59.0,29.72,NW,324,12.3,17.5,48,0.00,,,0.00,SSEC-RIG,2013-06-28 01:30:00,
2013-06-27 20:35:00,79.8,58.8,29.72,NW,321,16.0,20.3,48,0.00,,,0.00,SSEC-RIG,2013-06-28 01:35:00,
2013-06-27 20:40:00,79.7,58.6,29.72,NW,322,15.1,20.0,48,0.00,,,0.00,SSEC-RIG,2013-06-28 01:40:00,
2013-06-27 20:45:00,79.5,58.4,29.72,NW,320,14.2,19.4,48,0.00,,,0.00,SSEC-RIG,2013-06-28 01:45:00,
2013-06-27 20:55:00,79.2,58.0,29.72,NW,320,15.7,19.7,48,0.00,,,0.00,SSEC-RIG,2013-06-28 01:55:00,
2013-06-27 21:00:00,79.0,57.9,29.72,NW,321,14.2,17.8,48,0.00,,,0.00,SSEC-RIG,2013-06-28 02:00:00,
2013-06-27 21:05:00,79.0,57.7,29.72,NW,317,15.1,20.2,47,0.00,,,0.00,SSEC-RIG,2013-06-28 02:05:00,
2013-06-27 21:10:00,78.9,57.6,29.72,NW,317,15.1,19.0,47,0.00,,,0.00,SSEC-RIG,2013-06-28 02:10:00,
2013-06-27 21:20:00,78.7,57.5,29.72,NW,311,12.8,17.9,47,0.00,,,0.00,SSEC-RIG,2013-06-28 02:20:00,
2013-06-27 21:25:00,78.5,57.6,29.72,NW,312,11.1,-999.0,48,0.00,,,0.00,SSEC-RIG,2013-06-28 02:25:00,
2013-06-27 21:30:00,78.4,57.6,29.72,NW,311,11.5,18.3,48,0.00,,,0.00,SSEC-RIG,2013-06-28 02:30:00,
2013-06-27 21:35:00,78.3,57.6,29.72,NW,314,11.3,-999.0,48,0.00,,,0.00,SSEC-RIG,2013-06-28 02:35:00,
2013-06-27 21:40:00,78.2,57.7,29.72,NW,313,10.9,-999.0,49,0.00,,,0.00,SSEC-RIG,2013-06-28 02:40:00,
2013-06-27 21:45:00,78.1,57.7,29.72,NW,307,11.0,-999.0,49,0.00,,,0.00,SSEC-RIG,2013-06-28 02:45:00,
2013-06-27 21:50:00,78.0,57.7,29.72,NW,306,12.7,16.1,49,0.00,,,0.00,SSEC-RIG,2013-06-28 02:50:00,
2013-06-27 21:55:00,78.1,57.5,29.72,NW,305,13.9,17.1,48,0.00,,,0.00,SSEC-RIG,2013-06-28 02:55:00,
2013-06-27 22:05:00,78.0,57.3,29.73,NW,307,12.8,18.9,48,0.00,,,0.00,SSEC-RIG,2013-06-28 03:05:00,
2013-06-27 22:30:00,77.2,56.9,29.72,NW,311,13.4,17.6,49,0.00,,,0.00,SSEC-RIG,2013-06-28 03:30:00,
2013-06-27 22:40:00,76.9,57.0,29.72,NW,310,12.1,17.2,49,0.00,,,0.00,SSEC-RIG,2013-06-28 03:40:00,
2013-06-27 22:55:00,76.4,57.1,29.72,NW,311,11.9,-999.0,51,0.00,,,0.00,SSEC-RIG,2013-06-28 03:55:00,
2013-06-27 23:00:00,76.3,57.1,29.72,NW,307,12.9,17.9,51,0.00,,,0.00,SSEC-RIG,2013-06-28 04:00:00,
2013-06-27 23:05:00,76.1,57.1,29.72,NW,305,13.4,17.1,51,0.00,,,0.00,SSEC-RIG,2013-06-28 04:05:00,
2013-06-27 23:10:00,76.0,57.0,29.72,NW,304,14.3,18.2,51,0.00,,,0.00,SSEC-RIG,2013-06-28 04:10:00,
2013-06-27 23:15:00,75.8,57.1,29.72,NW,304,14.7,17.6,51,0.00,,,0.00,SSEC-RIG,2013-06-28 04:15:00,
2013-06-27 23:20:00,75.7,56.9,29.73,NW,310,13.4,17.3,51,0.00,,,0.00,SSEC-RIG,2013-06-28 04:20:00,
2013-06-27 23:25:00,75.7,56.8,29.72,NW,309,13.2,19.3,51,0.00,,,0.00,SSEC-RIG,2013-06-28 04:25:00,
2013-06-27 23:30:00,75.6,56.7,29.72,NW,305,13.8,18.4,51,0.00,,,0.00,SSEC-RIG,2013-06-28 04:30:00,
2013-06-27 23:35:00,75.5,56.7,29.73,NW,306,14.1,18.4,51,0.00,,,0.00,SSEC-RIG,2013-06-28 04:35:00,
2013-06-27 23:45:00,75.2,56.8,29.73,NW,308,12.2,16.3,52,0.00,,,0.00,SSEC-RIG,2013-06-28 04:45:00,
2013-06-27 23:50:00,75.0,56.8,29.73,NW,306,13.5,17.9,52,0.00,,,0.00,SSEC-RIG,2013-06-28 04:50:00,
2013-06-27 23:55:00,74.9,56.9,29.73,NW,309,12.3,17.4,53,0.00,,,0.00,SSEC-RIG,2013-06-28 04:55:00,